sensor_id;sensor_type;location;lat;lon;timestamp;P1;durP1;ratioP1;P2;durP2;ratioP2
44110;SDS011;29774;52.664;5.074;2023-05-01T00:01:08;3.63;;;2.47;;
44110;SDS011;29774;52.664;5.074;2023-05-01T00:03:33;2.95;;;2.55;;
44110;SDS011;29774;52.664;5.074;2023-05-01T00:06:03;3.45;;;2.40;;
44110;SDS011;29774;52.664;5.074;2023-05-01T00:08:29;3.65;;;2.45;;
44110;SDS011;29774;52.664;5.074;2023-05-01T00:10:56;4.68;;;2.53;;
44110;SDS011;29774;52.664;5.074;2023-05-01T00:13:21;4.00;;;2.58;;
44110;SDS011;29774;52.664;5.074;2023-05-01T00:15:48;3.78;;;2.60;;
44110;SDS011;29774;52.664;5.074;2023-05-01T00:18:15;5.88;;;2.58;;
44110;SDS011;29774;52.664;5.074;2023-05-01T00:20:40;4.07;;;2.90;;
44110;SDS011;29774;52.664;5.074;2023-05-01T00:23:06;4.20;;;2.83;;
44110;SDS011;29774;52.664;5.074;2023-05-01T00:25:32;4.57;;;2.67;;
44110;SDS011;29774;52.664;5.074;2023-05-01T00:27:58;6.03;;;2.80;;
44110;SDS011;29774;52.664;5.074;2023-05-01T00:30:24;3.95;;;2.60;;
44110;SDS011;29774;52.664;5.074;2023-05-01T00:32:51;5.88;;;2.45;;
44110;SDS011;29774;52.664;5.074;2023-05-01T00:35:17;5.47;;;2.38;;
44110;SDS011;29774;52.664;5.074;2023-05-01T00:37:42;3.92;;;2.20;;
44110;SDS011;29774;52.664;5.074;2023-05-01T00:40:08;3.03;;;2.40;;
44110;SDS011;29774;52.664;5.074;2023-05-01T00:42:35;4.65;;;2.67;;
44110;SDS011;29774;52.664;5.074;2023-05-01T00:45:01;4.88;;;2.80;;
44110;SDS011;29774;52.664;5.074;2023-05-01T00:47:27;6.70;;;2.70;;
44110;SDS011;29774;52.664;5.074;2023-05-01T00:49:53;3.03;;;2.60;;
44110;SDS011;29774;52.664;5.074;2023-05-01T00:52:19;4.45;;;3.28;;
44110;SDS011;29774;52.664;5.074;2023-05-01T00:54:45;7.72;;;2.97;;
44110;SDS011;29774;52.664;5.074;2023-05-01T00:57:17;3.20;;;2.33;;
44110;SDS011;29774;52.664;5.074;2023-05-01T00:59:46;5.18;;;2.92;;
44110;SDS011;29774;52.664;5.074;2023-05-01T01:02:13;4.00;;;2.33;;
44110;SDS011;29774;52.664;5.074;2023-05-01T01:04:42;3.22;;;2.42;;
44110;SDS011;29774;52.664;5.074;2023-05-01T01:07:23;5.00;;;2.78;;
44110;SDS011;29774;52.664;5.074;2023-05-01T01:12:59;5.50;;;2.95;;
44110;SDS011;29774;52.664;5.074;2023-05-01T01:18:39;5.38;;;2.90;;
44110;SDS011;29774;52.664;5.074;2023-05-01T01:35:31;8.35;;;2.70;;
44110;SDS011;29774;52.664;5.074;2023-05-01T01:38:02;6.40;;;2.88;;
44110;SDS011;29774;52.664;5.074;2023-05-01T01:40:38;8.18;;;3.05;;
44110;SDS011;29774;52.664;5.074;2023-05-01T01:43:17;5.80;;;2.60;;
44110;SDS011;29774;52.664;5.074;2023-05-01T01:45:46;6.45;;;3.00;;
44110;SDS011;29774;52.664;5.074;2023-05-01T01:48:15;6.00;;;2.60;;
44110;SDS011;29774;52.664;5.074;2023-05-01T01:50:44;4.35;;;2.88;;
44110;SDS011;29774;52.664;5.074;2023-05-01T01:53:12;5.90;;;3.30;;
44110;SDS011;29774;52.664;5.074;2023-05-01T01:55:42;5.45;;;2.88;;
44110;SDS011;29774;52.664;5.074;2023-05-01T01:58:09;5.10;;;2.70;;
44110;SDS011;29774;52.664;5.074;2023-05-01T02:00:36;4.93;;;3.22;;
44110;SDS011;29774;52.664;5.074;2023-05-01T02:03:05;7.78;;;3.13;;
44110;SDS011;29774;52.664;5.074;2023-05-01T02:05:34;7.03;;;3.00;;
44110;SDS011;29774;52.664;5.074;2023-05-01T02:08:01;4.32;;;3.00;;
44110;SDS011;29774;52.664;5.074;2023-05-01T02:10:29;5.68;;;3.20;;
44110;SDS011;29774;52.664;5.074;2023-05-01T02:12:56;5.15;;;2.47;;
44110;SDS011;29774;52.664;5.074;2023-05-01T02:15:24;5.32;;;3.20;;
44110;SDS011;29774;52.664;5.074;2023-05-01T02:17:50;4.80;;;3.17;;
44110;SDS011;29774;52.664;5.074;2023-05-01T02:20:16;4.47;;;2.63;;
44110;SDS011;29774;52.664;5.074;2023-05-01T02:22:43;4.68;;;3.38;;
44110;SDS011;29774;52.664;5.074;2023-05-01T02:25:11;3.30;;;2.55;;
44110;SDS011;29774;52.664;5.074;2023-05-01T02:27:44;6.47;;;2.50;;
44110;SDS011;29774;52.664;5.074;2023-05-01T02:30:12;5.50;;;2.85;;
44110;SDS011;29774;52.664;5.074;2023-05-01T02:32:38;4.45;;;2.85;;
44110;SDS011;29774;52.664;5.074;2023-05-01T02:35:04;5.93;;;3.00;;
44110;SDS011;29774;52.664;5.074;2023-05-01T02:37:30;3.35;;;2.75;;
44110;SDS011;29774;52.664;5.074;2023-05-01T02:39:56;5.30;;;2.75;;
44110;SDS011;29774;52.664;5.074;2023-05-01T02:42:23;5.22;;;2.85;;
44110;SDS011;29774;52.664;5.074;2023-05-01T02:44:52;5.28;;;2.75;;
44110;SDS011;29774;52.664;5.074;2023-05-01T02:47:22;6.60;;;2.85;;
44110;SDS011;29774;52.664;5.074;2023-05-01T02:49:51;3.28;;;2.85;;
44110;SDS011;29774;52.664;5.074;2023-05-01T02:52:18;3.65;;;2.97;;
44110;SDS011;29774;52.664;5.074;2023-05-01T02:54:46;6.13;;;2.97;;
44110;SDS011;29774;52.664;5.074;2023-05-01T02:57:13;5.55;;;3.60;;
44110;SDS011;29774;52.664;5.074;2023-05-01T02:59:41;4.90;;;2.63;;
44110;SDS011;29774;52.664;5.074;2023-05-01T03:02:07;4.00;;;3.28;;
44110;SDS011;29774;52.664;5.074;2023-05-01T03:04:32;5.55;;;2.80;;
44110;SDS011;29774;52.664;5.074;2023-05-01T03:06:58;3.90;;;3.05;;
44110;SDS011;29774;52.664;5.074;2023-05-01T03:09:24;6.55;;;3.42;;
44110;SDS011;29774;52.664;5.074;2023-05-01T03:11:49;6.15;;;3.25;;
44110;SDS011;29774;52.664;5.074;2023-05-01T03:14:15;6.07;;;2.97;;
44110;SDS011;29774;52.664;5.074;2023-05-01T03:16:40;5.25;;;2.83;;
44110;SDS011;29774;52.664;5.074;2023-05-01T03:19:06;4.40;;;3.00;;
44110;SDS011;29774;52.664;5.074;2023-05-01T03:21:32;3.67;;;2.47;;
44110;SDS011;29774;52.664;5.074;2023-05-01T03:23:58;4.65;;;2.80;;
44110;SDS011;29774;52.664;5.074;2023-05-01T03:26:24;5.63;;;3.08;;
44110;SDS011;29774;52.664;5.074;2023-05-01T03:28:50;6.20;;;2.85;;
44110;SDS011;29774;52.664;5.074;2023-05-01T03:31:16;6.53;;;2.60;;
44110;SDS011;29774;52.664;5.074;2023-05-01T03:33:41;3.55;;;2.60;;
44110;SDS011;29774;52.664;5.074;2023-05-01T03:36:07;4.22;;;3.15;;
44110;SDS011;29774;52.664;5.074;2023-05-01T03:38:35;3.90;;;2.78;;
44110;SDS011;29774;52.664;5.074;2023-05-01T03:41:01;8.70;;;3.70;;
44110;SDS011;29774;52.664;5.074;2023-05-01T03:43:26;4.35;;;2.80;;
44110;SDS011;29774;52.664;5.074;2023-05-01T03:45:52;7.65;;;3.15;;
44110;SDS011;29774;52.664;5.074;2023-05-01T03:48:18;5.10;;;2.88;;
44110;SDS011;29774;52.664;5.074;2023-05-01T03:50:44;3.92;;;2.75;;
44110;SDS011;29774;52.664;5.074;2023-05-01T03:53:10;4.78;;;2.70;;
44110;SDS011;29774;52.664;5.074;2023-05-01T03:55:37;3.95;;;2.53;;
44110;SDS011;29774;52.664;5.074;2023-05-01T03:58:04;2.97;;;2.50;;
44110;SDS011;29774;52.664;5.074;2023-05-01T04:00:30;6.93;;;2.83;;
44110;SDS011;29774;52.664;5.074;2023-05-01T04:02:56;3.65;;;2.60;;
44110;SDS011;29774;52.664;5.074;2023-05-01T04:05:22;4.93;;;2.88;;
44110;SDS011;29774;52.664;5.074;2023-05-01T04:07:48;6.93;;;2.90;;
44110;SDS011;29774;52.664;5.074;2023-05-01T04:10:13;5.65;;;3.85;;
44110;SDS011;29774;52.664;5.074;2023-05-01T04:12:41;4.05;;;2.70;;
44110;SDS011;29774;52.664;5.074;2023-05-01T04:15:06;4.40;;;3.10;;
44110;SDS011;29774;52.664;5.074;2023-05-01T04:17:34;4.60;;;2.70;;
44110;SDS011;29774;52.664;5.074;2023-05-01T04:20:00;6.28;;;3.10;;
44110;SDS011;29774;52.664;5.074;2023-05-01T04:22:26;4.32;;;2.42;;
44110;SDS011;29774;52.664;5.074;2023-05-01T04:24:52;5.97;;;2.60;;
44110;SDS011;29774;52.664;5.074;2023-05-01T04:27:18;6.90;;;2.80;;
44110;SDS011;29774;52.664;5.074;2023-05-01T04:29:44;4.95;;;3.05;;
44110;SDS011;29774;52.664;5.074;2023-05-01T04:32:10;3.33;;;2.78;;
44110;SDS011;29774;52.664;5.074;2023-05-01T04:34:35;5.40;;;2.80;;
44110;SDS011;29774;52.664;5.074;2023-05-01T04:37:01;4.22;;;2.92;;
44110;SDS011;29774;52.664;5.074;2023-05-01T04:39:27;4.50;;;2.80;;
44110;SDS011;29774;52.664;5.074;2023-05-01T04:41:53;4.60;;;2.85;;
44110;SDS011;29774;52.664;5.074;2023-05-01T04:44:18;3.70;;;3.10;;
44110;SDS011;29774;52.664;5.074;2023-05-01T04:46:44;3.60;;;2.50;;
44110;SDS011;29774;52.664;5.074;2023-05-01T04:49:10;4.18;;;2.85;;
44110;SDS011;29774;52.664;5.074;2023-05-01T04:51:36;3.33;;;3.03;;
44110;SDS011;29774;52.664;5.074;2023-05-01T04:54:01;4.60;;;3.38;;
44110;SDS011;29774;52.664;5.074;2023-05-01T04:56:28;3.53;;;2.78;;
44110;SDS011;29774;52.664;5.074;2023-05-01T04:58:54;4.63;;;3.03;;
44110;SDS011;29774;52.664;5.074;2023-05-01T05:01:20;4.50;;;2.63;;
44110;SDS011;29774;52.664;5.074;2023-05-01T05:03:45;4.40;;;2.95;;
44110;SDS011;29774;52.664;5.074;2023-05-01T05:06:11;5.55;;;2.97;;
44110;SDS011;29774;52.664;5.074;2023-05-01T05:08:37;3.53;;;2.92;;
44110;SDS011;29774;52.664;5.074;2023-05-01T05:11:02;3.88;;;2.70;;
44110;SDS011;29774;52.664;5.074;2023-05-01T05:13:28;3.80;;;2.95;;
44110;SDS011;29774;52.664;5.074;2023-05-01T05:15:53;4.78;;;3.05;;
44110;SDS011;29774;52.664;5.074;2023-05-01T05:18:19;4.72;;;3.20;;
44110;SDS011;29774;52.664;5.074;2023-05-01T05:20:45;5.00;;;2.85;;
44110;SDS011;29774;52.664;5.074;2023-05-01T05:23:10;5.22;;;2.80;;
44110;SDS011;29774;52.664;5.074;2023-05-01T05:25:36;6.93;;;3.05;;
44110;SDS011;29774;52.664;5.074;2023-05-01T05:28:02;6.68;;;3.83;;
44110;SDS011;29774;52.664;5.074;2023-05-01T05:30:28;3.92;;;3.25;;
44110;SDS011;29774;52.664;5.074;2023-05-01T05:32:53;4.35;;;3.38;;
44110;SDS011;29774;52.664;5.074;2023-05-01T05:35:19;6.13;;;3.67;;
44110;SDS011;29774;52.664;5.074;2023-05-01T05:37:45;6.38;;;4.10;;
44110;SDS011;29774;52.664;5.074;2023-05-01T05:40:11;6.43;;;3.28;;
44110;SDS011;29774;52.664;5.074;2023-05-01T05:42:37;6.65;;;3.70;;
44110;SDS011;29774;52.664;5.074;2023-05-01T05:45:03;7.13;;;3.90;;
44110;SDS011;29774;52.664;5.074;2023-05-01T05:47:29;7.05;;;3.88;;
44110;SDS011;29774;52.664;5.074;2023-05-01T05:49:54;5.03;;;4.40;;
44110;SDS011;29774;52.664;5.074;2023-05-01T05:52:20;7.53;;;4.35;;
44110;SDS011;29774;52.664;5.074;2023-05-01T05:54:46;10.13;;;4.68;;
44110;SDS011;29774;52.664;5.074;2023-05-01T05:57:11;5.95;;;3.90;;
44110;SDS011;29774;52.664;5.074;2023-05-01T05:59:37;6.43;;;4.47;;
44110;SDS011;29774;52.664;5.074;2023-05-01T06:02:03;5.30;;;4.00;;
44110;SDS011;29774;52.664;5.074;2023-05-01T06:04:28;7.28;;;4.28;;
44110;SDS011;29774;52.664;5.074;2023-05-01T06:06:54;9.02;;;4.63;;
44110;SDS011;29774;52.664;5.074;2023-05-01T06:09:21;6.25;;;4.38;;
44110;SDS011;29774;52.664;5.074;2023-05-01T06:11:47;8.43;;;4.50;;
44110;SDS011;29774;52.664;5.074;2023-05-01T06:14:13;7.05;;;4.75;;
44110;SDS011;29774;52.664;5.074;2023-05-01T06:16:40;7.70;;;4.55;;
44110;SDS011;29774;52.664;5.074;2023-05-01T06:19:06;8.70;;;4.45;;
44110;SDS011;29774;52.664;5.074;2023-05-01T06:21:34;8.98;;;4.55;;
44110;SDS011;29774;52.664;5.074;2023-05-01T06:23:59;7.13;;;4.63;;
44110;SDS011;29774;52.664;5.074;2023-05-01T06:26:25;8.90;;;4.30;;
44110;SDS011;29774;52.664;5.074;2023-05-01T06:28:52;9.88;;;4.95;;
44110;SDS011;29774;52.664;5.074;2023-05-01T06:31:18;9.18;;;4.72;;
44110;SDS011;29774;52.664;5.074;2023-05-01T06:33:44;7.18;;;4.40;;
44110;SDS011;29774;52.664;5.074;2023-05-01T06:36:10;10.93;;;4.30;;
44110;SDS011;29774;52.664;5.074;2023-05-01T06:38:35;9.65;;;4.28;;
44110;SDS011;29774;52.664;5.074;2023-05-01T06:41:02;7.95;;;4.53;;
44110;SDS011;29774;52.664;5.074;2023-05-01T06:43:29;8.65;;;4.85;;
44110;SDS011;29774;52.664;5.074;2023-05-01T06:45:55;8.07;;;3.95;;
44110;SDS011;29774;52.664;5.074;2023-05-01T06:48:21;6.55;;;4.20;;
44110;SDS011;29774;52.664;5.074;2023-05-01T06:50:47;6.70;;;4.03;;
44110;SDS011;29774;52.664;5.074;2023-05-01T06:53:12;6.43;;;3.92;;
44110;SDS011;29774;52.664;5.074;2023-05-01T06:55:38;7.80;;;3.97;;
44110;SDS011;29774;52.664;5.074;2023-05-01T06:58:03;6.32;;;3.95;;
44110;SDS011;29774;52.664;5.074;2023-05-01T07:00:30;7.20;;;3.70;;
44110;SDS011;29774;52.664;5.074;2023-05-01T07:02:57;8.00;;;3.97;;
44110;SDS011;29774;52.664;5.074;2023-05-01T07:05:23;4.32;;;3.53;;
44110;SDS011;29774;52.664;5.074;2023-05-01T07:07:49;4.43;;;3.40;;
44110;SDS011;29774;52.664;5.074;2023-05-01T07:10:14;7.45;;;3.90;;
44110;SDS011;29774;52.664;5.074;2023-05-01T07:12:40;9.02;;;3.95;;
44110;SDS011;29774;52.664;5.074;2023-05-01T07:15:06;5.32;;;3.35;;
44110;SDS011;29774;52.664;5.074;2023-05-01T07:17:32;6.63;;;3.60;;
44110;SDS011;29774;52.664;5.074;2023-05-01T07:19:58;7.80;;;3.45;;
44110;SDS011;29774;52.664;5.074;2023-05-01T07:22:25;6.25;;;3.72;;
44110;SDS011;29774;52.664;5.074;2023-05-01T07:24:50;8.30;;;3.70;;
44110;SDS011;29774;52.664;5.074;2023-05-01T07:27:16;7.00;;;3.72;;
44110;SDS011;29774;52.664;5.074;2023-05-01T07:29:42;6.25;;;3.55;;
44110;SDS011;29774;52.664;5.074;2023-05-01T07:32:08;6.68;;;3.50;;
44110;SDS011;29774;52.664;5.074;2023-05-01T07:34:34;7.00;;;3.42;;
44110;SDS011;29774;52.664;5.074;2023-05-01T07:36:59;5.22;;;3.03;;
44110;SDS011;29774;52.664;5.074;2023-05-01T07:39:25;6.45;;;3.03;;
44110;SDS011;29774;52.664;5.074;2023-05-01T07:41:51;7.28;;;3.38;;
44110;SDS011;29774;52.664;5.074;2023-05-01T07:44:16;4.93;;;3.17;;
44110;SDS011;29774;52.664;5.074;2023-05-01T07:46:42;5.55;;;3.63;;
44110;SDS011;29774;52.664;5.074;2023-05-01T07:49:07;6.68;;;3.10;;
44110;SDS011;29774;52.664;5.074;2023-05-01T07:51:33;4.72;;;3.42;;
44110;SDS011;29774;52.664;5.074;2023-05-01T07:53:58;6.47;;;3.80;;
44110;SDS011;29774;52.664;5.074;2023-05-01T07:56:28;5.82;;;3.80;;
44110;SDS011;29774;52.664;5.074;2023-05-01T07:58:55;7.20;;;3.33;;
44110;SDS011;29774;52.664;5.074;2023-05-01T08:01:21;7.45;;;3.85;;
44110;SDS011;29774;52.664;5.074;2023-05-01T08:03:46;8.00;;;2.97;;
44110;SDS011;29774;52.664;5.074;2023-05-01T08:06:12;4.03;;;2.72;;
44110;SDS011;29774;52.664;5.074;2023-05-01T08:08:38;3.72;;;3.15;;
44110;SDS011;29774;52.664;5.074;2023-05-01T08:11:04;6.13;;;3.03;;
44110;SDS011;29774;52.664;5.074;2023-05-01T08:13:29;6.22;;;3.20;;
44110;SDS011;29774;52.664;5.074;2023-05-01T08:15:58;4.55;;;3.35;;
44110;SDS011;29774;52.664;5.074;2023-05-01T08:18:25;4.95;;;2.70;;
44110;SDS011;29774;52.664;5.074;2023-05-01T08:20:50;7.28;;;2.90;;
44110;SDS011;29774;52.664;5.074;2023-05-01T08:23:16;5.75;;;2.85;;
44110;SDS011;29774;52.664;5.074;2023-05-01T08:25:42;8.57;;;3.22;;
44110;SDS011;29774;52.664;5.074;2023-05-01T08:28:13;4.63;;;3.10;;
44110;SDS011;29774;52.664;5.074;2023-05-01T08:30:39;4.05;;;2.88;;
44110;SDS011;29774;52.664;5.074;2023-05-01T08:33:04;4.63;;;2.95;;
44110;SDS011;29774;52.664;5.074;2023-05-01T08:35:31;3.28;;;2.90;;
44110;SDS011;29774;52.664;5.074;2023-05-01T08:37:56;5.85;;;3.13;;
44110;SDS011;29774;52.664;5.074;2023-05-01T08:40:22;4.57;;;3.10;;
44110;SDS011;29774;52.664;5.074;2023-05-01T08:42:50;5.72;;;3.50;;
44110;SDS011;29774;52.664;5.074;2023-05-01T08:45:16;7.22;;;2.92;;
44110;SDS011;29774;52.664;5.074;2023-05-01T08:47:45;4.57;;;2.90;;
44110;SDS011;29774;52.664;5.074;2023-05-01T08:50:13;6.55;;;3.05;;
44110;SDS011;29774;52.664;5.074;2023-05-01T08:52:41;6.03;;;3.13;;
44110;SDS011;29774;52.664;5.074;2023-05-01T08:55:11;5.88;;;3.40;;
44110;SDS011;29774;52.664;5.074;2023-05-01T08:57:45;8.35;;;3.13;;
44110;SDS011;29774;52.664;5.074;2023-05-01T09:00:20;6.75;;;3.75;;
44110;SDS011;29774;52.664;5.074;2023-05-01T09:02:47;6.15;;;3.30;;
44110;SDS011;29774;52.664;5.074;2023-05-01T09:05:17;6.47;;;3.13;;
44110;SDS011;29774;52.664;5.074;2023-05-01T09:07:44;7.85;;;3.45;;
44110;SDS011;29774;52.664;5.074;2023-05-01T09:10:19;4.88;;;3.08;;
44110;SDS011;29774;52.664;5.074;2023-05-01T09:12:48;8.80;;;3.35;;
44110;SDS011;29774;52.664;5.074;2023-05-01T09:15:19;5.97;;;3.25;;
44110;SDS011;29774;52.664;5.074;2023-05-01T09:17:45;4.78;;;3.10;;
44110;SDS011;29774;52.664;5.074;2023-05-01T09:20:12;5.63;;;3.38;;
44110;SDS011;29774;52.664;5.074;2023-05-01T09:22:37;11.50;;;3.70;;
44110;SDS011;29774;52.664;5.074;2023-05-01T09:25:04;4.88;;;3.63;;
44110;SDS011;29774;52.664;5.074;2023-05-01T09:27:33;6.45;;;3.20;;
44110;SDS011;29774;52.664;5.074;2023-05-01T09:30:00;3.30;;;2.22;;
44110;SDS011;29774;52.664;5.074;2023-05-01T09:32:27;6.85;;;3.40;;
44110;SDS011;29774;52.664;5.074;2023-05-01T09:34:53;2.95;;;2.00;;
44110;SDS011;29774;52.664;5.074;2023-05-01T09:37:29;3.20;;;1.90;;
44110;SDS011;29774;52.664;5.074;2023-05-01T09:40:14;3.22;;;1.98;;
44110;SDS011;29774;52.664;5.074;2023-05-01T09:42:50;3.38;;;1.60;;
44110;SDS011;29774;52.664;5.074;2023-05-01T09:45:16;2.42;;;1.52;;
44110;SDS011;29774;52.664;5.074;2023-05-01T09:47:47;2.88;;;1.55;;
44110;SDS011;29774;52.664;5.074;2023-05-01T09:50:32;3.97;;;2.70;;
44110;SDS011;29774;52.664;5.074;2023-05-01T09:53:02;2.05;;;1.63;;
44110;SDS011;29774;52.664;5.074;2023-05-01T09:55:30;2.38;;;1.90;;
44110;SDS011;29774;52.664;5.074;2023-05-01T09:57:56;5.50;;;2.58;;
44110;SDS011;29774;52.664;5.074;2023-05-01T10:00:23;2.85;;;1.95;;
44110;SDS011;29774;52.664;5.074;2023-05-01T10:02:49;4.35;;;2.80;;
44110;SDS011;29774;52.664;5.074;2023-05-01T10:05:15;4.88;;;2.55;;
44110;SDS011;29774;52.664;5.074;2023-05-01T10:10:23;3.88;;;2.15;;
44110;SDS011;29774;52.664;5.074;2023-05-01T10:12:49;1.88;;;1.70;;
44110;SDS011;29774;52.664;5.074;2023-05-01T10:15:15;9.00;;;3.38;;
44110;SDS011;29774;52.664;5.074;2023-05-01T10:17:42;5.75;;;2.72;;
44110;SDS011;29774;52.664;5.074;2023-05-01T10:20:09;8.18;;;4.13;;
44110;SDS011;29774;52.664;5.074;2023-05-01T10:22:36;5.28;;;3.72;;
44110;SDS011;29774;52.664;5.074;2023-05-01T10:25:02;3.53;;;2.30;;
44110;SDS011;29774;52.664;5.074;2023-05-01T10:27:32;5.97;;;3.70;;
44110;SDS011;29774;52.664;5.074;2023-05-01T10:29:59;6.18;;;3.78;;
44110;SDS011;29774;52.664;5.074;2023-05-01T10:32:31;4.30;;;1.90;;
44110;SDS011;29774;52.664;5.074;2023-05-01T10:35:01;4.55;;;3.70;;
44110;SDS011;29774;52.664;5.074;2023-05-01T10:37:40;1.60;;;1.50;;
44110;SDS011;29774;52.664;5.074;2023-05-01T10:43:26;2.92;;;2.50;;
44110;SDS011;29774;52.664;5.074;2023-05-01T10:51:19;2.92;;;1.77;;
44110;SDS011;29774;52.664;5.074;2023-05-01T10:54:20;3.40;;;1.50;;
44110;SDS011;29774;52.664;5.074;2023-05-01T10:59:03;3.17;;;2.40;;
44110;SDS011;29774;52.664;5.074;2023-05-01T11:01:31;4.50;;;3.22;;
44110;SDS011;29774;52.664;5.074;2023-05-01T11:04:48;7.53;;;3.78;;
44110;SDS011;29774;52.664;5.074;2023-05-01T11:12:03;6.03;;;4.25;;
44110;SDS011;29774;52.664;5.074;2023-05-01T11:20:03;3.60;;;3.03;;
44110;SDS011;29774;52.664;5.074;2023-05-01T11:22:30;6.82;;;3.75;;
44110;SDS011;29774;52.664;5.074;2023-05-01T11:24:56;6.88;;;4.90;;
44110;SDS011;29774;52.664;5.074;2023-05-01T11:27:22;4.05;;;2.03;;
44110;SDS011;29774;52.664;5.074;2023-05-01T11:29:48;2.83;;;1.90;;
44110;SDS011;29774;52.664;5.074;2023-05-01T11:32:17;2.20;;;1.95;;
44110;SDS011;29774;52.664;5.074;2023-05-01T11:34:47;2.47;;;2.03;;
44110;SDS011;29774;52.664;5.074;2023-05-01T11:37:13;1.80;;;1.70;;
44110;SDS011;29774;52.664;5.074;2023-05-01T11:39:45;3.92;;;1.60;;
44110;SDS011;29774;52.664;5.074;2023-05-01T11:42:15;2.17;;;1.90;;
44110;SDS011;29774;52.664;5.074;2023-05-01T11:44:44;4.60;;;2.47;;
44110;SDS011;29774;52.664;5.074;2023-05-01T11:47:32;7.95;;;5.15;;
44110;SDS011;29774;52.664;5.074;2023-05-01T11:49:59;2.88;;;2.58;;
44110;SDS011;29774;52.664;5.074;2023-05-01T11:52:26;8.45;;;5.22;;
44110;SDS011;29774;52.664;5.074;2023-05-01T11:54:52;5.80;;;2.10;;
44110;SDS011;29774;52.664;5.074;2023-05-01T11:57:18;7.30;;;4.97;;
44110;SDS011;29774;52.664;5.074;2023-05-01T11:59:47;5.18;;;2.65;;
44110;SDS011;29774;52.664;5.074;2023-05-01T12:02:16;3.17;;;2.00;;
44110;SDS011;29774;52.664;5.074;2023-05-01T12:04:44;3.55;;;2.28;;
44110;SDS011;29774;52.664;5.074;2023-05-01T12:07:22;3.30;;;2.22;;
44110;SDS011;29774;52.664;5.074;2023-05-01T12:09:49;2.70;;;2.15;;
44110;SDS011;29774;52.664;5.074;2023-05-01T12:12:15;6.90;;;5.10;;
44110;SDS011;29774;52.664;5.074;2023-05-01T12:14:41;4.45;;;3.65;;
44110;SDS011;29774;52.664;5.074;2023-05-01T12:17:07;7.32;;;4.30;;
44110;SDS011;29774;52.664;5.074;2023-05-01T12:19:44;3.17;;;2.63;;
44110;SDS011;29774;52.664;5.074;2023-05-01T12:22:12;2.50;;;2.30;;
44110;SDS011;29774;52.664;5.074;2023-05-01T12:24:47;2.90;;;2.53;;
44110;SDS011;29774;52.664;5.074;2023-05-01T12:27:16;3.67;;;2.58;;
44110;SDS011;29774;52.664;5.074;2023-05-01T12:29:43;2.67;;;2.45;;
44110;SDS011;29774;52.664;5.074;2023-05-01T12:32:11;5.82;;;4.22;;
44110;SDS011;29774;52.664;5.074;2023-05-01T12:34:37;4.70;;;3.20;;
44110;SDS011;29774;52.664;5.074;2023-05-01T12:37:04;6.78;;;3.90;;
44110;SDS011;29774;52.664;5.074;2023-05-01T12:39:39;2.78;;;2.17;;
44110;SDS011;29774;52.664;5.074;2023-05-01T12:42:11;3.92;;;2.35;;
44110;SDS011;29774;52.664;5.074;2023-05-01T12:44:38;2.90;;;2.55;;
44110;SDS011;29774;52.664;5.074;2023-05-01T12:47:05;6.95;;;3.70;;
44110;SDS011;29774;52.664;5.074;2023-05-01T12:49:32;7.85;;;5.07;;
44110;SDS011;29774;52.664;5.074;2023-05-01T12:52:02;5.22;;;4.25;;
44110;SDS011;29774;52.664;5.074;2023-05-01T12:54:30;5.75;;;4.97;;
44110;SDS011;29774;52.664;5.074;2023-05-01T12:57:14;5.53;;;4.05;;
44110;SDS011;29774;52.664;5.074;2023-05-01T12:59:41;5.50;;;4.50;;
44110;SDS011;29774;52.664;5.074;2023-05-01T13:02:09;7.70;;;5.25;;
44110;SDS011;29774;52.664;5.074;2023-05-01T13:04:36;5.75;;;4.60;;
44110;SDS011;29774;52.664;5.074;2023-05-01T13:07:09;6.22;;;5.18;;
44110;SDS011;29774;52.664;5.074;2023-05-01T13:12:17;6.53;;;4.53;;
44110;SDS011;29774;52.664;5.074;2023-05-01T13:14:43;7.25;;;5.18;;
44110;SDS011;29774;52.664;5.074;2023-05-01T13:17:09;7.70;;;5.35;;
44110;SDS011;29774;52.664;5.074;2023-05-01T13:19:38;8.45;;;6.03;;
44110;SDS011;29774;52.664;5.074;2023-05-01T13:22:04;7.68;;;5.25;;
44110;SDS011;29774;52.664;5.074;2023-05-01T13:24:37;9.25;;;6.20;;
44110;SDS011;29774;52.664;5.074;2023-05-01T13:27:03;7.70;;;6.38;;
44110;SDS011;29774;52.664;5.074;2023-05-01T13:29:30;11.07;;;7.07;;
44110;SDS011;29774;52.664;5.074;2023-05-01T13:31:56;8.52;;;5.97;;
44110;SDS011;29774;52.664;5.074;2023-05-01T13:34:29;9.00;;;5.72;;
44110;SDS011;29774;52.664;5.074;2023-05-01T13:36:58;10.05;;;5.45;;
44110;SDS011;29774;52.664;5.074;2023-05-01T13:39:25;7.13;;;5.25;;
44110;SDS011;29774;52.664;5.074;2023-05-01T13:41:52;7.25;;;5.82;;
44110;SDS011;29774;52.664;5.074;2023-05-01T13:44:18;6.55;;;5.65;;
44110;SDS011;29774;52.664;5.074;2023-05-01T13:46:45;7.32;;;5.45;;
44110;SDS011;29774;52.664;5.074;2023-05-01T13:49:12;9.38;;;5.65;;
44110;SDS011;29774;52.664;5.074;2023-05-01T13:51:39;5.80;;;5.03;;
44110;SDS011;29774;52.664;5.074;2023-05-01T13:54:07;6.85;;;4.55;;
44110;SDS011;29774;52.664;5.074;2023-05-01T13:56:37;10.52;;;5.95;;
44110;SDS011;29774;52.664;5.074;2023-05-01T13:59:04;7.40;;;6.18;;
44110;SDS011;29774;52.664;5.074;2023-05-01T14:01:31;10.20;;;6.47;;
44110;SDS011;29774;52.664;5.074;2023-05-01T14:04:07;8.63;;;5.93;;
44110;SDS011;29774;52.664;5.074;2023-05-01T14:06:35;8.48;;;6.30;;
44110;SDS011;29774;52.664;5.074;2023-05-01T14:09:05;6.70;;;5.63;;
44110;SDS011;29774;52.664;5.074;2023-05-01T14:11:30;7.03;;;4.93;;
44110;SDS011;29774;52.664;5.074;2023-05-01T14:13:56;5.40;;;4.25;;
44110;SDS011;29774;52.664;5.074;2023-05-01T14:16:24;4.50;;;3.40;;
44110;SDS011;29774;52.664;5.074;2023-05-01T14:18:51;4.88;;;4.25;;
44110;SDS011;29774;52.664;5.074;2023-05-01T14:21:21;6.18;;;4.93;;
44110;SDS011;29774;52.664;5.074;2023-05-01T14:23:52;6.30;;;5.35;;
44110;SDS011;29774;52.664;5.074;2023-05-01T14:26:19;6.68;;;5.13;;
44110;SDS011;29774;52.664;5.074;2023-05-01T14:28:45;6.03;;;4.45;;
44110;SDS011;29774;52.664;5.074;2023-05-01T14:31:33;5.80;;;4.93;;
44110;SDS011;29774;52.664;5.074;2023-05-01T14:34:01;5.45;;;4.90;;
44110;SDS011;29774;52.664;5.074;2023-05-01T14:36:30;4.63;;;3.80;;
44110;SDS011;29774;52.664;5.074;2023-05-01T14:38:57;6.50;;;5.07;;
44110;SDS011;29774;52.664;5.074;2023-05-01T14:41:23;6.28;;;4.88;;
44110;SDS011;29774;52.664;5.074;2023-05-01T14:43:50;5.85;;;4.85;;
44110;SDS011;29774;52.664;5.074;2023-05-01T14:46:22;8.32;;;7.10;;
44110;SDS011;29774;52.664;5.074;2023-05-01T14:48:55;7.00;;;5.65;;
44110;SDS011;29774;52.664;5.074;2023-05-01T14:51:21;8.93;;;7.78;;
44110;SDS011;29774;52.664;5.074;2023-05-01T14:53:46;9.00;;;7.25;;
44110;SDS011;29774;52.664;5.074;2023-05-01T14:56:12;5.13;;;4.55;;
44110;SDS011;29774;52.664;5.074;2023-05-01T14:58:38;5.68;;;4.60;;
44110;SDS011;29774;52.664;5.074;2023-05-01T15:01:03;6.32;;;4.85;;
44110;SDS011;29774;52.664;5.074;2023-05-01T15:03:30;10.95;;;8.02;;
44110;SDS011;29774;52.664;5.074;2023-05-01T15:05:56;5.45;;;4.20;;
44110;SDS011;29774;52.664;5.074;2023-05-01T15:08:21;4.30;;;3.90;;
44110;SDS011;29774;52.664;5.074;2023-05-01T15:10:48;5.05;;;4.50;;
44110;SDS011;29774;52.664;5.074;2023-05-01T15:13:13;8.25;;;7.40;;
44110;SDS011;29774;52.664;5.074;2023-05-01T15:15:39;4.60;;;3.90;;
44110;SDS011;29774;52.664;5.074;2023-05-01T15:18:05;4.22;;;3.75;;
44110;SDS011;29774;52.664;5.074;2023-05-01T15:20:31;6.57;;;5.05;;
44110;SDS011;29774;52.664;5.074;2023-05-01T15:22:56;5.38;;;4.15;;
44110;SDS011;29774;52.664;5.074;2023-05-01T15:25:22;6.50;;;4.30;;
44110;SDS011;29774;52.664;5.074;2023-05-01T15:27:48;13.35;;;9.63;;
44110;SDS011;29774;52.664;5.074;2023-05-01T15:30:14;15.80;;;11.55;;
44110;SDS011;29774;52.664;5.074;2023-05-01T15:32:40;16.55;;;11.95;;
44110;SDS011;29774;52.664;5.074;2023-05-01T15:35:05;6.70;;;4.82;;
44110;SDS011;29774;52.664;5.074;2023-05-01T15:37:32;11.90;;;9.07;;